Time;durP1;ratioP1;P1;durP2;ratioP2;P2;SDS_P1;SDS_P2;PMS_P1;PMS_P2;Temp;Humidity;BMP_temperature;BMP_pressure;BME280_temperature;BME280_humidity;BME280_pressure;Samples;Min_cycle;Max_cycle;Signal;HPM_P1;HPM_P2
2023/06/20 00:09:52;;;;;;;1999.90;999.90;;;23.80;99.90;;;;;;6756175;88;20176;-80
2023/06/20 00:19:53;;;;;;;1999.90;999.90;;;23.40;99.90;;;;;;6755410;88;20211;-79
2023/06/20 00:29:53;;;;;;;1999.90;999.90;;;23.30;99.90;;;;;;6755492;88;20216;-80
2023/06/20 00:39:54;;;;;;;1999.90;999.90;;;23.00;99.90;;;;;;6752667;88;20239;-79
2023/06/20 00:49:55;;;;;;;1999.90;999.90;;;22.50;99.90;;;;;;6747758;88;20184;-79
2023/06/20 00:59:56;;;;;;;1999.90;999.90;;;22.10;99.90;;;;;;6749774;88;20606;-79
2023/06/20 01:10:24;;;;;;;1999.90;999.90;;;22.00;99.90;;;;;;6757692;88;20757;-80
2023/06/20 01:20:33;;;;;;;1999.90;999.90;;;21.70;99.90;;;;;;6751384;88;20294;-80
2023/06/20 01:30:42;;;;;;;1999.90;999.90;;;21.40;99.90;;;;;;6751770;88;20214;-79
2023/06/20 01:40:48;;;;;;;1999.90;999.90;;;21.30;99.90;;;;;;6750623;88;20314;-80
2023/06/20 01:50:50;;;;;;;1999.90;999.90;;;21.20;99.90;;;;;;6752181;88;20195;-80
2023/06/20 02:00:51;;;;;;;1999.90;999.90;;;21.40;99.90;;;;;;6753623;88;20185;-81
2023/06/20 02:10:53;;;;;;;1999.90;999.90;;;21.20;99.90;;;;;;6760884;88;20710;-79
2023/06/20 02:20:54;;;;;;;1999.90;999.90;;;21.30;99.90;;;;;;6761452;88;20233;-78
2023/06/20 02:30:56;;;;;;;1999.90;999.90;;;21.40;99.90;;;;;;6761310;88;20179;-78
2023/06/20 02:40:57;;;;;;;1999.90;999.90;;;21.30;99.90;;;;;;6764148;88;20191;-81
2023/06/20 02:51:09;;;;;;;1999.90;999.90;;;21.30;99.90;;;;;;6763334;88;20177;-82
2023/06/20 03:01:13;;;;;;;1999.90;999.90;;;21.20;99.90;;;;;;6761831;88;20188;-79
2023/06/20 03:11:13;;;;;;;1999.90;999.90;;;21.30;99.90;;;;;;6762168;88;20218;-78
2023/06/20 03:21:14;;;;;;;1999.90;999.90;;;21.40;99.90;;;;;;6762515;88;20195;-79
2023/06/20 03:42:16;;;;;;;1999.90;999.90;;;21.20;99.90;;;;;;6798802;87;20222;-80
2023/06/20 03:52:17;;;;;;;1999.90;999.90;;;21.00;99.90;;;;;;6800398;87;20178;-80
2023/06/20 04:02:17;;;;;;;1999.90;999.90;;;21.10;99.90;;;;;;6809136;87;20204;-80
2023/06/20 04:12:18;;;;;;;1999.90;999.90;;;20.90;99.90;;;;;;6812442;87;20210;-80
2023/06/20 04:22:19;;;;;;;1999.90;999.90;;;20.90;99.90;;;;;;6803432;87;21055;-80
2023/06/20 04:32:19;;;;;;;1999.90;999.90;;;20.70;99.90;;;;;;6797354;87;20696;-80
2023/06/20 04:42:20;;;;;;;1999.90;999.90;;;20.70;99.90;;;;;;6798659;87;20837;-80
2023/06/20 04:52:20;;;;;;;1999.90;999.90;;;20.80;99.90;;;;;;6803088;87;20227;-80
2023/06/20 05:02:21;;;;;;;1999.90;999.90;;;20.80;99.90;;;;;;6749967;87;20198;-80
2023/06/20 05:12:22;;;;;;;1999.90;999.90;;;20.90;99.90;;;;;;6717607;88;20354;-80
2023/06/20 05:22:22;;;;;;;1999.90;999.90;;;21.00;99.90;;;;;;6708461;87;20678;-80
2023/06/20 05:32:23;;;;;;;1999.90;999.90;;;21.10;99.90;;;;;;6768857;87;20260;-78
2023/06/20 05:42:23;;;;;;;1999.90;999.90;;;21.10;99.90;;;;;;6783772;87;20193;-80
2023/06/20 05:52:24;;;;;;;1999.90;999.90;;;21.20;99.90;;;;;;6780377;87;20199;-79
2023/06/20 06:02:24;;;;;;;1999.90;999.90;;;21.40;99.90;;;;;;6776986;87;20183;-78
2023/06/20 06:12:25;;;;;;;1999.90;999.90;;;21.60;99.90;;;;;;6783427;87;20191;-79
2023/06/20 06:22:25;;;;;;;1999.90;999.90;;;22.10;99.90;;;;;;6768709;88;20274;-79
2023/06/20 06:32:27;;;;;;;1999.90;999.90;;;22.20;99.90;;;;;;6767644;88;20187;-80
2023/06/20 06:42:28;;;;;;;1999.90;999.90;;;22.50;99.90;;;;;;6785641;87;20213;-79
2023/06/20 06:52:30;;;;;;;1999.90;999.90;;;22.40;99.90;;;;;;6787802;87;20283;-80
2023/06/20 07:02:30;;;;;;;1999.90;999.90;;;23.20;99.90;;;;;;6790819;87;20183;-81
2023/06/20 07:12:31;;;;;;;1999.90;999.90;;;23.40;99.90;;;;;;6799737;87;20200;-84
2023/06/20 07:22:32;;;;;;;1999.90;999.90;;;24.40;99.90;;;;;;6795995;87;20179;-82
2023/06/20 07:32:33;;;;;;;1999.90;999.90;;;24.90;99.90;;;;;;6798473;87;20271;-80
2023/06/20 07:42:34;;;;;;;1999.90;999.90;;;25.50;99.90;;;;;;6799642;87;20307;-81
2023/06/20 07:52:35;;;;;;;1999.90;999.90;;;25.20;99.90;;;;;;6798740;87;20341;-80
2023/06/20 08:02:36;;;;;;;1999.90;999.90;;;25.60;99.90;;;;;;6784144;87;20300;-80
2023/06/20 08:12:40;;;;;;;1999.90;999.90;;;25.40;99.90;;;;;;6782242;87;20172;-80
2023/06/20 08:22:40;;;;;;;1999.90;999.90;;;26.00;99.90;;;;;;6790929;87;20346;-80
2023/06/20 08:32:42;;;;;;;1999.90;999.90;;;26.50;99.90;;;;;;6784907;87;20219;-80
2023/06/20 08:42:43;;;;;;;1999.90;999.90;;;26.70;99.90;;;;;;6756019;87;20159;-81
2023/06/20 08:52:47;;;;;;;1999.90;999.90;;;26.70;99.90;;;;;;6765312;87;20201;-81
2023/06/20 09:02:49;;;;;;;1999.90;999.90;;;27.00;99.90;;;;;;6787051;87;20164;-80
2023/06/20 09:12:50;;;;;;;1999.90;999.90;;;28.00;99.90;;;;;;6775627;87;20177;-79
2023/06/20 09:22:51;;;;;;;1999.90;999.90;;;28.40;99.90;;;;;;6771923;87;20694;-82
2023/06/20 09:32:51;;;;;;;1999.90;999.90;;;28.20;99.90;;;;;;6761917;87;20330;-80
2023/06/20 09:42:56;;;;;;;1999.90;999.90;;;29.20;99.90;;;;;;6781964;87;20672;-82
2023/06/20 09:53:27;;;;;;;1999.90;999.90;;;28.20;99.90;;;;;;6779926;87;20229;-80
2023/06/20 10:03:28;;;;;;;1999.90;999.90;;;29.40;99.90;;;;;;6764280;87;20184;-81
2023/06/20 10:13:30;;;;;;;1999.90;999.90;;;28.50;99.90;;;;;;6757048;87;20209;-81
2023/06/20 10:23:32;;;;;;;1999.90;999.90;;;29.20;99.90;;;;;;6775979;87;20738;-79
2023/06/20 10:33:35;;;;;;;1999.90;999.90;;;30.00;99.90;;;;;;6758401;87;20666;-79
2023/06/20 10:43:53;;;;;;;1999.90;999.90;;;30.30;99.90;;;;;;6765917;87;20715;-80
2023/06/20 10:54:07;;;;;;;1999.90;999.90;;;30.70;99.90;;;;;;6760394;87;20197;-78
2023/06/20 11:04:13;;;;;;;1999.90;999.90;;;30.70;99.90;;;;;;6771680;87;20350;-78
2023/06/20 11:14:21;;;;;;;1999.90;999.90;;;31.90;99.50;;;;;;6761523;87;20175;-80
2023/06/20 11:24:22;;;;;;;1999.90;999.90;;;31.00;98.90;;;;;;6786984;87;20213;-81
2023/06/20 11:34:22;;;;;;;1999.90;999.90;;;31.50;97.80;;;;;;6762400;87;20237;-81
2023/06/20 11:44:24;;;;;;;1999.90;999.90;;;32.00;96.90;;;;;;6798355;87;20205;-81
2023/06/20 11:54:25;;;;;;;1999.90;999.90;;;32.10;96.70;;;;;;6794273;87;20190;-82
2023/06/20 12:04:25;;;;;;;1999.90;999.90;;;32.00;96.90;;;;;;6802119;87;20339;-81
2023/06/20 12:14:26;;;;;;;1999.90;999.90;;;32.20;95.90;;;;;;6785687;87;20175;-80
2023/06/20 12:24:27;;;;;;;1999.90;999.90;;;32.10;95.30;;;;;;6779947;87;20214;-81
2023/06/20 12:34:28;;;;;;;1999.90;999.90;;;32.60;95.20;;;;;;6773286;87;20309;-80
2023/06/20 12:44:28;;;;;;;1999.90;999.90;;;31.70;95.00;;;;;;6766029;87;20562;-80
2023/06/20 12:54:29;;;;;;;1999.90;999.90;;;32.90;93.70;;;;;;6775352;87;20217;-80
2023/06/20 13:04:29;;;;;;;1999.90;999.90;;;32.60;93.40;;;;;;6767357;87;20215;-81
2023/06/20 13:14:30;;;;;;;1999.90;999.90;;;32.80;93.20;;;;;;6777676;87;20182;-80
2023/06/20 13:24:31;;;;;;;1999.90;999.90;;;32.90;92.10;;;;;;6766210;87;20248;-82
2023/06/20 13:34:32;;;;;;;1999.90;999.90;;;32.10;92.60;;;;;;6765585;87;20208;-79
2023/06/20 13:44:33;;;;;;;1999.90;999.90;;;33.50;90.00;;;;;;6775139;87;20223;-80
2023/06/20 13:54:33;;;;;;;1999.90;999.90;;;34.40;87.90;;;;;;6799311;87;20188;-80
2023/06/20 14:04:35;;;;;;;1999.90;999.90;;;34.20;85.50;;;;;;6776158;87;20205;-80
2023/06/20 14:14:35;;;;;;;1999.90;999.90;;;33.30;86.60;;;;;;6779356;87;20733;-80
2023/06/20 14:24:36;;;;;;;1999.90;999.90;;;33.50;85.20;;;;;;6786348;87;20191;-79
2023/06/20 14:34:37;;;;;;;1999.90;999.90;;;32.50;86.30;;;;;;6744956;87;20662;-79
2023/06/20 14:44:38;;;;;;;1999.90;999.90;;;31.80;86.60;;;;;;6771567;87;20218;-80
2023/06/20 14:54:38;;;;;;;1999.90;999.90;;;31.40;88.10;;;;;;6784327;87;20260;-82
2023/06/20 15:04:39;;;;;;;1999.90;999.90;;;31.50;88.30;;;;;;6792766;87;20187;-80
2023/06/20 15:14:39;;;;;;;1999.90;999.90;;;31.90;87.10;;;;;;6773057;87;20260;-82
2023/06/20 15:24:40;;;;;;;1999.90;999.90;;;32.10;88.20;;;;;;6768700;87;20184;-79
2023/06/20 15:34:41;;;;;;;1999.90;999.90;;;32.10;88.20;;;;;;6767458;76;20198;-81
2023/06/20 15:44:41;;;;;;;1999.90;999.90;;;31.70;87.50;;;;;;6734481;88;20205;-79
2023/06/20 15:54:42;;;;;;;1999.90;999.90;;;31.40;88.10;;;;;;6724873;88;20199;-79
2023/06/20 16:04:42;;;;;;;1999.90;999.90;;;31.00;88.90;;;;;;6722704;88;20194;-77
2023/06/20 16:14:44;;;;;;;1999.90;999.90;;;30.90;89.70;;;;;;6722456;88;20185;-78
2023/06/20 16:24:45;;;;;;;;;;;30.70;90.40;;;;;;6726664;88;20214;-78
2023/06/20 16:34:45;;;;;;;1999.90;999.90;;;30.50;90.90;;;;;;6716570;88;20140;-79
2023/06/20 16:44:46;;;;;;;1999.90;999.90;;;30.40;91.20;;;;;;6707627;88;20317;-77
2023/06/20 16:54:46;;;;;;;1999.90;999.90;;;30.50;90.60;;;;;;6708765;88;20208;-78
2023/06/20 17:04:47;;;;;;;1999.90;999.90;;;30.10;91.00;;;;;;6704260;88;20696;-78
2023/06/20 17:14:48;;;;;;;1999.90;999.90;;;30.00;91.10;;;;;;6705179;88;20217;-78
2023/06/20 17:24:48;;;;;;;1999.90;999.90;;;30.00;91.10;;;;;;6706704;88;20236;-78
2023/06/20 17:34:51;;;;;;;1999.90;999.90;;;30.00;91.10;;;;;;6707934;88;20637;-77
2023/06/20 17:44:52;;;;;;;1999.90;999.90;;;29.60;91.50;;;;;;6704710;88;20244;-79
2023/06/20 17:54:52;;;;;;;1999.90;999.90;;;29.50;91.90;;;;;;6706052;88;20943;-78
2023/06/20 18:04:53;;;;;;;1999.90;999.90;;;29.50;91.90;;;;;;6700090;88;20241;-77
2023/06/20 18:14:54;;;;;;;1999.90;999.90;;;29.40;92.00;;;;;;6694637;88;20231;-78
2023/06/20 18:24:54;;;;;;;1999.90;999.90;;;29.20;92.10;;;;;;6707392;88;20214;-78
2023/06/20 18:34:55;;;;;;;1999.90;999.90;;;29.00;92.30;;;;;;6714952;88;20225;-79
2023/06/20 18:44:56;;;;;;;1999.90;999.90;;;28.90;92.60;;;;;;6725394;88;20166;-81
2023/06/20 18:54:57;;;;;;;1999.90;999.90;;;28.50;94.00;;;;;;6744012;88;20154;-81
2023/06/20 19:04:58;;;;;;;1999.90;999.90;;;26.20;99.90;;;;;;6740695;88;20194;-80
2023/06/20 19:15:02;;;;;;;1999.90;999.90;;;25.10;99.90;;;;;;6728076;88;20660;-80
2023/06/20 19:25:03;;;;;;;1999.90;999.90;;;25.00;99.90;;;;;;6735152;88;20215;-80
2023/06/20 19:35:04;;;;;;;1999.90;999.90;;;25.20;99.90;;;;;;6721206;88;20204;-79
2023/06/20 19:45:05;;;;;;;1999.90;999.90;;;25.00;99.90;;;;;;6679371;88;20202;-80
2023/06/20 19:55:06;;;;;;;1999.90;999.90;;;25.10;99.90;;;;;;6708625;88;20174;-79
2023/06/20 20:05:07;;;;;;;1999.90;999.90;;;25.20;99.90;;;;;;6710047;88;20212;-79
2023/06/20 20:15:09;;;;;;;1999.90;999.90;;;25.10;99.90;;;;;;6724007;88;20290;-80
2023/06/20 20:25:10;;;;;;;1999.90;999.90;;;24.90;99.90;;;;;;6676500;88;20179;-79
2023/06/20 20:35:11;;;;;;;1999.90;999.90;;;24.90;99.90;;;;;;6713919;88;20310;-78
2023/06/20 20:45:12;;;;;;;1999.90;999.90;;;24.90;99.90;;;;;;6737057;88;20616;-78
2023/06/20 20:55:12;;;;;;;1999.90;999.90;;;24.80;99.90;;;;;;6725878;88;20214;-78
2023/06/20 21:05:13;;;;;;;1999.90;999.90;;;24.70;99.90;;;;;;6721520;88;20260;-79
2023/06/20 21:15:14;;;;;;;1999.90;999.90;;;24.70;99.90;;;;;;6723509;88;20235;-79
2023/06/20 21:25:14;;;;;;;1999.90;999.90;;;24.60;99.90;;;;;;6721397;88;20615;-78
2023/06/20 21:35:15;;;;;;;1999.90;999.90;;;24.10;99.90;;;;;;6722412;88;20230;-78
2023/06/20 21:45:15;;;;;;;1999.90;999.90;;;23.50;99.90;;;;;;6724021;88;20961;-79
2023/06/20 21:55:16;;;;;;;1999.90;999.90;;;23.20;99.90;;;;;;6719629;88;20324;-80
2023/06/20 22:05:17;;;;;;;1999.90;999.90;;;23.00;99.90;;;;;;6718171;88;20201;-79
2023/06/20 22:15:18;;;;;;;1999.90;999.90;;;22.90;99.90;;;;;;6722785;88;20269;-79
2023/06/20 22:25:18;;;;;;;1999.90;999.90;;;22.60;99.90;;;;;;6735585;88;20217;-80
2023/06/20 22:35:19;;;;;;;1999.90;999.90;;;22.40;99.90;;;;;;6724683;88;20274;-80
2023/06/20 22:45:19;;;;;;;1999.90;999.90;;;22.20;99.90;;;;;;6723873;88;20253;-79
2023/06/20 22:55:20;;;;;;;1999.90;999.90;;;22.20;99.90;;;;;;6733274;88;20720;-79
2023/06/20 23:05:20;;;;;;;1999.90;999.90;;;22.00;99.90;;;;;;6724385;88;20206;-79
2023/06/20 23:15:21;;;;;;;1999.90;999.90;;;21.90;99.90;;;;;;6719193;88;20238;-79
2023/06/20 23:25:21;;;;;;;1999.90;999.90;;;21.70;99.90;;;;;;6739054;88;20218;-80
2023/06/20 23:35:22;;;;;;;1999.90;999.90;;;21.70;99.90;;;;;;6724827;88;20208;-78
2023/06/20 23:45:23;;;;;;;1999.90;999.90;;;21.40;99.90;;;;;;6721875;88;20242;-79
2023/06/20 23:55:25;;;;;;;1999.90;999.90;;;21.30;99.90;;;;;;6738219;88;20221;-79
